createdAt,value
2023-04-15T00:01:10.223Z,1.93
2023-04-15T00:05:19.353Z,1.87
2023-04-15T00:09:30.070Z,2.17
2023-04-15T00:13:39.825Z,1.40
2023-04-15T00:17:49.040Z,2.10
2023-04-15T00:21:58.306Z,1.83
2023-04-15T00:26:09.091Z,2.07
2023-04-15T00:30:18.185Z,2.60
2023-04-15T00:34:28.168Z,2.30
2023-04-15T00:38:38.009Z,2.23
2023-04-15T00:42:48.721Z,2.50
2023-04-15T00:46:58.805Z,2.30
2023-04-15T00:51:09.938Z,2.37
2023-04-15T00:55:19.611Z,2.60
2023-04-15T00:59:31.069Z,2.23
2023-04-15T01:03:40.706Z,2.40
2023-04-15T01:07:50.794Z,2.10
2023-04-15T01:11:59.853Z,2.50
2023-04-15T01:16:11.100Z,2.27
2023-04-15T01:20:20.628Z,2.37
2023-04-15T01:24:32.445Z,2.30
2023-04-15T01:28:43.990Z,2.57
2023-04-15T01:32:53.575Z,2.30
2023-04-15T01:37:02.731Z,2.07
2023-04-15T01:41:11.948Z,2.60
2023-04-15T01:45:22.692Z,1.93
2023-04-15T01:49:31.686Z,2.07
2023-04-15T01:53:41.113Z,2.20
2023-04-15T01:57:50.182Z,2.70
2023-04-15T02:02:01.804Z,2.10
2023-04-15T02:06:10.852Z,2.23
2023-04-15T02:10:20.196Z,1.90
2023-04-15T02:14:29.258Z,2.07
2023-04-15T02:18:39.897Z,2.23
2023-04-15T02:22:49.379Z,1.90
2023-04-15T02:26:58.641Z,2.00
2023-04-15T02:31:08.597Z,2.20
2023-04-15T02:35:20.210Z,1.80
2023-04-15T02:39:29.280Z,1.87
2023-04-15T02:43:40.279Z,1.83
2023-04-15T02:47:49.509Z,2.30
2023-04-15T02:52:01.035Z,1.67
2023-04-15T02:56:10.455Z,2.30
2023-04-15T03:00:19.657Z,2.13
2023-04-15T03:04:30.393Z,2.47
2023-04-15T03:08:41.135Z,2.10
2023-04-15T03:12:50.392Z,2.03
2023-04-15T03:17:00.054Z,2.40
2023-04-15T03:21:09.818Z,2.20
2023-04-15T03:25:20.461Z,2.47
2023-04-15T03:29:29.741Z,2.13
2023-04-15T03:33:38.810Z,2.20
2023-04-15T03:37:49.515Z,2.03
2023-04-15T03:42:00.456Z,2.03
2023-04-15T03:46:09.814Z,2.30
2023-04-15T03:50:19.084Z,2.07
2023-04-15T03:54:28.217Z,1.97
2023-04-15T03:58:39.194Z,2.13
2023-04-15T04:02:48.704Z,1.97
2023-04-15T04:06:58.097Z,2.13
2023-04-15T04:11:07.738Z,1.80
2023-04-15T04:15:18.628Z,1.97
2023-04-15T04:19:27.872Z,1.90
2023-04-15T04:23:36.953Z,2.07
2023-04-15T04:27:46.709Z,2.30
2023-04-15T04:31:57.371Z,2.50
2023-04-15T04:36:07.317Z,2.00
2023-04-15T04:40:16.568Z,2.77
2023-04-15T04:44:25.770Z,1.53
2023-04-15T04:48:36.411Z,2.00
2023-04-15T04:52:45.549Z,2.37
2023-04-15T04:56:54.749Z,2.03
2023-04-15T05:01:04.590Z,1.80
2023-04-15T05:05:15.566Z,2.00
2023-04-15T05:09:24.589Z,2.00
2023-04-15T05:13:33.999Z,1.93
2023-04-15T05:17:43.279Z,1.60
2023-04-15T05:21:54.084Z,1.90
2023-04-15T05:26:03.224Z,2.20
2023-04-15T05:30:13.748Z,2.10
2023-04-15T05:34:23.352Z,2.20
2023-04-15T05:38:34.172Z,2.00
2023-04-15T05:42:43.756Z,2.33
2023-04-15T05:46:52.891Z,1.80
2023-04-15T05:51:02.117Z,2.03
2023-04-15T05:55:13.094Z,2.03
2023-04-15T05:59:22.334Z,1.43
2023-04-15T06:03:31.808Z,1.80
2023-04-15T06:07:41.290Z,2.30
2023-04-15T06:11:52.052Z,2.10
2023-04-15T06:16:01.214Z,1.87
2023-04-15T06:20:11.658Z,1.97
2023-04-15T06:24:20.756Z,1.70
2023-04-15T06:28:31.677Z,2.17
2023-04-15T06:32:40.779Z,2.30
2023-04-15T06:36:49.931Z,2.10
2023-04-15T06:40:59.151Z,2.20
2023-04-15T06:45:11.189Z,2.37
2023-04-15T06:49:20.307Z,1.77
2023-04-15T06:53:29.711Z,1.87
2023-04-15T06:57:38.837Z,1.90
2023-04-15T07:01:50.022Z,2.00
2023-04-15T07:05:59.190Z,2.77
2023-04-15T07:10:10.205Z,2.27
2023-04-15T07:14:19.867Z,2.10
2023-04-15T07:18:30.413Z,2.53
2023-04-15T07:22:39.570Z,2.07
2023-04-15T07:26:49.534Z,2.17
2023-04-15T07:30:59.780Z,2.13
2023-04-15T07:35:11.929Z,2.23
2023-04-15T07:39:21.426Z,2.60
2023-04-15T07:43:30.558Z,2.27
2023-04-15T07:47:39.790Z,2.27
2023-04-15T07:51:51.893Z,2.20
2023-04-15T07:56:01.131Z,2.83
2023-04-15T08:00:11.735Z,2.13
2023-04-15T08:04:21.079Z,1.80
2023-04-15T08:08:31.711Z,2.60
2023-04-15T08:12:41.118Z,1.87
2023-04-15T08:16:50.294Z,2.20
2023-04-15T08:20:59.648Z,1.90
2023-04-15T08:25:11.248Z,2.10
2023-04-15T08:29:20.467Z,1.70
2023-04-15T08:33:29.771Z,1.50
2023-04-15T08:37:39.158Z,2.17
2023-04-15T08:41:53.430Z,1.83
2023-04-15T08:46:03.193Z,1.60
2023-04-15T08:50:12.974Z,2.30
2023-04-15T08:54:22.311Z,1.93
2023-04-15T08:58:33.354Z,2.03
2023-04-15T09:02:43.427Z,1.50
2023-04-15T09:06:53.161Z,1.80
2023-04-15T09:11:02.840Z,1.80
2023-04-15T09:15:15.893Z,1.83
2023-04-15T09:19:26.290Z,1.30
2023-04-15T09:23:35.928Z,1.40
2023-04-15T09:27:51.327Z,1.50
2023-04-15T09:32:12.208Z,1.20
2023-04-15T09:36:21.703Z,1.17
2023-04-15T09:40:34.591Z,1.07
2023-04-15T09:44:43.804Z,1.03
2023-04-15T09:49:09.932Z,1.30
2023-04-15T09:53:20.610Z,1.07
2023-04-15T09:57:36.799Z,1.30
2023-04-15T10:01:46.867Z,1.23
2023-04-15T10:06:00.749Z,1.10
2023-04-15T10:10:10.806Z,1.40
2023-04-15T10:14:22.137Z,1.10
2023-04-15T10:18:32.917Z,0.87
2023-04-15T10:22:45.200Z,1.40
2023-04-15T10:26:54.720Z,1.03
2023-04-15T10:31:04.367Z,1.23
2023-04-15T10:35:13.564Z,1.40
2023-04-15T10:39:44.689Z,1.10
2023-04-15T10:43:56.257Z,1.13
2023-04-15T10:48:08.535Z,1.03
2023-04-15T10:52:19.278Z,1.57
2023-04-15T10:56:31.180Z,1.30
2023-04-15T11:00:40.231Z,1.60
2023-04-15T11:04:57.747Z,1.13
2023-04-15T11:09:09.959Z,1.17
2023-04-15T11:13:29.662Z,1.33
2023-04-15T11:17:38.725Z,0.93
2023-04-15T11:21:47.793Z,1.23
2023-04-15T11:25:57.617Z,0.97
2023-04-15T11:30:22.291Z,1.23
2023-04-15T11:34:32.343Z,1.63
2023-04-15T11:38:45.391Z,1.00
2023-04-15T11:43:06.572Z,0.90
2023-04-15T11:47:26.250Z,0.80
2023-04-15T11:51:36.197Z,0.67
2023-04-15T11:55:46.648Z,1.00
2023-04-15T11:59:57.484Z,1.43
2023-04-15T12:04:15.776Z,1.10
2023-04-15T12:08:24.931Z,1.27
2023-04-15T12:12:34.114Z,1.00
2023-04-15T12:16:49.011Z,0.93
2023-04-15T12:21:11.095Z,0.80
2023-04-15T12:25:20.253Z,0.93
2023-04-15T12:29:30.732Z,0.87
2023-04-15T12:33:39.976Z,1.10
2023-04-15T12:37:52.840Z,1.13
2023-04-15T12:42:02.059Z,0.70
2023-04-15T12:46:11.273Z,0.47
2023-04-15T12:50:20.477Z,0.60
2023-04-15T12:54:31.740Z,0.93
2023-04-15T12:58:40.793Z,0.73
2023-04-15T13:02:50.124Z,0.80
2023-04-15T13:06:59.354Z,1.10
2023-04-15T13:11:10.253Z,1.20
2023-04-15T13:15:21.016Z,0.90
2023-04-15T13:19:31.257Z,0.87
2023-04-15T13:23:40.263Z,1.03
2023-04-15T13:27:51.511Z,0.70
2023-04-15T13:32:01.944Z,0.73
2023-04-15T13:36:11.396Z,0.80
2023-04-15T13:40:22.180Z,0.80
2023-04-15T13:44:32.824Z,1.23
2023-04-15T13:48:41.942Z,1.00
2023-04-15T13:52:50.915Z,0.90
2023-04-15T13:57:00.017Z,0.70
2023-04-15T14:01:10.691Z,1.20
2023-04-15T14:05:19.926Z,0.90
2023-04-15T14:09:29.125Z,0.97
2023-04-15T14:13:38.277Z,0.80
2023-04-15T14:17:48.929Z,1.10
2023-04-15T14:21:58.165Z,0.93
2023-04-15T14:26:07.418Z,0.90
2023-04-15T14:30:16.949Z,0.87
2023-04-15T14:34:27.552Z,0.80
2023-04-15T14:38:38.826Z,0.83
2023-04-15T14:42:48.398Z,1.03
2023-04-15T14:46:58.077Z,1.10
2023-04-15T14:51:09.030Z,0.87
2023-04-15T14:55:18.556Z,1.40
2023-04-15T14:59:27.913Z,1.10
2023-04-15T15:03:37.039Z,1.03
2023-04-15T15:07:47.714Z,0.93
2023-04-15T15:11:57.245Z,1.70
2023-04-15T15:16:07.405Z,1.20
2023-04-15T15:20:16.974Z,1.20
2023-04-15T15:24:27.516Z,1.40
2023-04-15T15:28:36.834Z,1.77
2023-04-15T15:32:46.090Z,1.90
2023-04-15T15:36:55.576Z,2.00
2023-04-15T15:41:06.618Z,2.30
2023-04-15T15:45:15.684Z,1.80
2023-04-15T15:49:25.595Z,2.27
2023-04-15T15:53:36.094Z,1.70
2023-04-15T15:57:46.755Z,1.30
2023-04-15T16:01:56.284Z,2.00
2023-04-15T16:06:06.082Z,1.90
2023-04-15T16:10:15.056Z,2.00
2023-04-15T16:14:26.615Z,1.93
2023-04-15T16:18:35.799Z,2.07
2023-04-15T16:22:45.043Z,2.20
2023-04-15T16:26:54.234Z,2.30
2023-04-15T16:31:04.957Z,1.60
2023-04-15T16:35:16.494Z,2.17
2023-04-15T16:39:25.574Z,1.80
2023-04-15T16:43:34.736Z,2.00
2023-04-15T16:47:45.355Z,1.60
2023-04-15T16:51:54.931Z,1.83
2023-04-15T16:56:04.294Z,1.40
2023-04-15T17:00:14.354Z,1.57
2023-04-15T17:04:25.140Z,1.97
2023-04-15T17:08:34.411Z,2.20
2023-04-15T17:12:43.736Z,2.20
2023-04-15T17:16:53.032Z,1.70
2023-04-15T17:21:04.092Z,1.80
2023-04-15T17:25:13.229Z,2.00
2023-04-15T17:29:22.372Z,2.00
2023-04-15T17:33:55.446Z,2.27
2023-04-15T17:38:02.691Z,1.87
2023-04-15T17:42:12.435Z,1.50
2023-04-15T17:46:21.884Z,2.00
2023-04-15T17:50:31.014Z,1.73
2023-04-15T17:54:41.676Z,1.70
2023-04-15T17:58:50.854Z,2.37
2023-04-15T18:03:00.352Z,2.20
2023-04-15T18:07:21.631Z,1.93
2023-04-15T18:11:34.217Z,2.23
2023-04-15T18:15:45.566Z,2.30
2023-04-15T18:19:55.898Z,2.47
2023-04-15T18:24:05.168Z,4.40
2023-04-15T18:28:16.150Z,4.30
2023-04-15T18:32:25.365Z,2.50
2023-04-15T18:36:34.518Z,2.40
2023-04-15T18:40:43.553Z,2.77
2023-04-15T18:44:55.254Z,2.40
2023-04-15T18:49:04.888Z,2.10
2023-04-15T18:53:14.137Z,1.70
2023-04-15T18:57:28.767Z,1.77
2023-04-15T19:01:45.817Z,1.63
2023-04-15T19:05:55.016Z,1.50
2023-04-15T19:10:04.713Z,1.37
2023-04-15T19:14:13.900Z,1.13
2023-04-15T19:18:24.536Z,1.33
2023-04-15T19:22:33.761Z,1.50
2023-04-15T19:26:42.996Z,1.90
2023-04-15T19:30:52.757Z,2.60
2023-04-15T19:35:03.313Z,2.43
2023-04-15T19:39:12.537Z,1.60
2023-04-15T19:43:21.699Z,1.67
2023-04-15T19:47:30.723Z,1.30
2023-04-15T19:51:43.140Z,1.07
2023-04-15T19:55:52.174Z,1.60
2023-04-15T20:00:01.448Z,1.63
2023-04-15T20:04:10.684Z,1.30
2023-04-15T20:08:21.638Z,1.33
2023-04-15T20:12:51.301Z,1.70
2023-04-15T20:17:00.142Z,1.73
2023-04-15T20:21:10.514Z,2.20
2023-04-15T20:25:21.671Z,1.70
2023-04-15T20:29:30.741Z,1.80
2023-04-15T20:33:39.856Z,2.23
2023-04-15T20:37:50.076Z,2.70
2023-04-15T20:42:01.683Z,2.50
2023-04-15T20:46:20.641Z,2.17
2023-04-15T20:50:30.914Z,1.87
2023-04-15T20:54:39.995Z,2.40
2023-04-15T20:58:50.549Z,2.50
2023-04-15T21:03:00.019Z,2.53
2023-04-15T21:07:09.717Z,2.57
2023-04-15T21:11:40.605Z,2.70
2023-04-15T21:15:54.442Z,2.33
2023-04-15T21:20:07.009Z,2.53
2023-04-15T21:24:16.193Z,2.83
2023-04-15T21:28:28.234Z,2.80
2023-04-15T21:32:38.827Z,2.63
2023-04-15T21:36:47.967Z,2.77
2023-04-15T21:40:57.336Z,2.73
2023-04-15T21:45:06.874Z,2.43
2023-04-15T21:49:22.697Z,2.73
2023-04-15T21:53:33.530Z,2.97
2023-04-15T21:57:42.854Z,2.50
2023-04-15T22:01:52.036Z,2.07
2023-04-15T22:06:02.949Z,1.90
2023-04-15T22:10:12.732Z,2.43
2023-04-15T22:14:21.895Z,1.87
2023-04-15T22:18:30.987Z,1.63
2023-04-15T22:22:44.380Z,2.17
2023-04-15T22:26:53.786Z,2.57
2023-04-15T22:31:03.136Z,1.70
2023-04-15T22:35:12.210Z,2.10
2023-04-15T22:39:22.993Z,2.10
2023-04-15T22:43:32.387Z,2.60
2023-04-15T22:47:41.530Z,2.27
2023-04-15T22:51:50.667Z,2.27
2023-04-15T22:56:01.346Z,2.47
2023-04-15T23:00:11.447Z,1.80
2023-04-15T23:04:24.935Z,2.20
2023-04-15T23:08:35.606Z,1.77
2023-04-15T23:12:46.163Z,2.37
2023-04-15T23:16:55.422Z,2.00
2023-04-15T23:21:05.718Z,2.40
2023-04-15T23:25:14.832Z,2.60
2023-04-15T23:29:25.486Z,2.30
2023-04-15T23:33:34.647Z,2.53
2023-04-15T23:37:43.817Z,2.63
2023-04-15T23:41:52.997Z,2.00
2023-04-15T23:46:03.604Z,2.57
2023-04-15T23:50:13.349Z,2.20
2023-04-15T23:54:22.477Z,2.10
2023-04-15T23:58:34.440Z,2.70
